Time;durP1;ratioP1;P1;durP2;ratioP2;P2;SDS_P1;SDS_P2;PMS_P1;PMS_P2;Temp;Humidity;BMP_temperature;BMP_pressure;BME280_temperature;BME280_humidity;BME280_pressure;Samples;Min_cycle;Max_cycle;Signal;HPM_P1;HPM_P2
2023/09/08 00:00:50;;;;;;;4.60;3.40;;;;;;;11.87;100.00;98095.23;110271;1241;71758;-65
2023/09/08 00:03:30;;;;;;;;;;;;;;;11.87;100.00;98097.73;110247;1240;69430;-65
2023/09/08 00:06:00;;;;;;;4.70;3.70;;;;;;;11.86;100.00;98095.85;110197;1243;69819;-65
2023/09/08 00:08:29;;;;;;;4.50;3.40;;;;;;;11.82;100.00;98095.73;110090;1245;59688;-65
2023/09/08 00:11:00;;;;;;;6.30;4.90;;;;;;;11.78;100.00;98096.00;110217;1247;59715;-66
2023/09/08 00:13:30;;;;;;;4.60;4.00;;;;;;;11.72;100.00;98093.73;110230;1250;71404;-65
2023/09/08 00:16:00;;;;;;;;;;;;;;;11.67;100.00;98092.34;110230;1242;69071;-65
2023/09/08 00:18:30;;;;;;;5.80;4.40;;;;;;;11.63;100.00;98089.11;110241;1242;69270;-65
2023/09/08 00:21:01;;;;;;;6.90;3.60;;;;;;;11.61;100.00;98090.70;110190;1242;59667;-66
2023/09/08 00:23:31;;;;;;;;;;;;;;;11.57;100.00;98090.27;110260;1242;59701;-65
2023/09/08 00:26:01;;;;;;;6.10;4.40;;;;;;;11.52;100.00;98085.71;110201;1248;71369;-66
2023/09/08 00:28:31;;;;;;;5.40;4.30;;;;;;;11.46;100.00;98087.84;110230;1248;69229;-66
2023/09/08 00:31:01;;;;;;;4.20;3.60;;;;;;;11.42;100.00;98085.60;110076;1250;68560;-66
2023/09/08 00:33:31;;;;;;;5.50;4.50;;;;;;;11.40;100.00;98086.50;110203;1242;59689;-66
2023/09/08 00:36:01;;;;;;;4.80;3.40;;;;;;;11.38;100.00;98087.13;110149;1246;59688;-66
2023/09/08 00:38:30;;;;;;;4.20;3.70;;;;;;;11.35;100.00;98089.71;110200;1242;71059;-65
2023/09/08 00:41:01;;;;;;;4.40;3.80;;;;;;;11.33;100.00;98089.21;110199;1240;69675;-65
2023/09/08 00:43:30;;;;;;;;;;;;;;;11.30;100.00;98084.54;110169;1242;69639;-65
2023/09/08 00:46:02;;;;;;;4.30;3.90;;;;;;;11.26;100.00;98085.67;110161;1242;59731;-65
2023/09/08 00:48:34;;;;;;;7.10;5.10;;;;;;;11.25;100.00;98082.89;110110;1245;59694;-67
2023/09/08 00:51:05;;;;;;;4.40;3.50;;;;;;;11.27;100.00;98084.73;110233;1242;71394;-65
2023/09/08 00:53:37;;;;;;;6.70;5.40;;;;;;;11.28;100.00;98081.17;110257;1242;68622;-67
2023/09/08 00:56:10;;;;;;;4.20;3.70;;;;;;;11.25;100.00;98079.44;110155;1245;69293;-67
2023/09/08 00:58:41;;;;;;;5.50;3.70;;;;;;;11.22;100.00;98080.98;110248;1242;59737;-65
2023/09/08 01:01:12;;;;;;;5.50;3.80;;;;;;;11.22;100.00;98079.77;110202;1243;59739;-66
2023/09/08 01:03:42;;;;;;;5.00;4.40;;;;;;;11.20;100.00;98077.83;110181;1244;71430;-65
2023/09/08 01:06:13;;;;;;;4.60;3.90;;;;;;;11.18;100.00;98078.10;110111;1246;68886;-65
2023/09/08 01:08:43;;;;;;;6.40;5.00;;;;;;;11.18;100.00;98076.37;110222;1242;69491;-65
2023/09/08 01:11:14;;;;;;;6.00;5.10;;;;;;;11.18;100.00;98080.03;110192;1243;59683;-65
2023/09/08 01:13:44;;;;;;;5.00;4.10;;;;;;;11.17;100.00;98076.58;110214;1241;59664;-65
2023/09/08 01:16:14;;;;;;;6.20;4.40;;;;;;;11.17;100.00;98078.01;110240;1242;72268;-65
2023/09/08 01:18:48;;;;;;;6.60;5.20;;;;;;;11.14;100.00;98075.21;110186;1242;68474;-65
2023/09/08 01:21:57;;;;;;;5.60;4.80;;;;;;;11.12;100.00;98074.28;110178;1243;68270;-65
2023/09/08 01:24:48;;;;;;;7.00;5.80;;;;;;;11.07;100.00;98070.95;110106;1243;59737;-65
2023/09/08 01:27:26;;;;;;;5.90;4.50;;;;;;;11.06;100.00;98066.70;110215;1242;59596;-65
2023/09/08 01:30:00;;;;;;;6.30;5.30;;;;;;;11.04;100.00;98063.48;110198;1242;70593;-64
2023/09/08 01:32:37;;;;;;;5.80;4.80;;;;;;;11.02;100.00;98065.36;110139;1244;69128;-67
2023/09/08 01:35:08;;;;;;;6.50;5.50;;;;;;;11.00;100.00;98067.42;110223;1243;67905;-65
2023/09/08 01:37:56;;;;;;;6.80;5.20;;;;;;;10.98;100.00;98063.52;110096;1246;59733;-65
2023/09/08 01:40:26;;;;;;;5.10;4.50;;;;;;;10.96;100.00;98061.41;110182;1242;59663;-65
2023/09/08 01:42:58;;;;;;;5.00;4.00;;;;;;;10.95;100.00;98065.13;110099;1246;71258;-65
2023/09/08 01:45:28;;;;;;;5.00;4.10;;;;;;;10.93;100.00;98063.84;110211;1245;69147;-67
2023/09/08 01:47:58;;;;;;;4.90;4.10;;;;;;;10.92;100.00;98068.44;110236;1242;68873;-65
2023/09/08 01:50:30;;;;;;;5.30;4.30;;;;;;;10.89;100.00;98072.09;110134;1245;59735;-65
2023/09/08 01:53:04;;;;;;;4.90;3.80;;;;;;;10.89;100.00;98069.00;110252;1242;59669;-67
2023/09/08 01:55:36;;;;;;;4.20;3.40;;;;;;;10.87;100.00;98071.91;110256;1242;71384;-66
2023/09/08 01:58:08;;;;;;;6.50;4.80;;;;;;;10.85;100.00;98074.11;110257;1242;69449;-66
2023/09/08 02:00:41;;;;;;;5.40;4.10;;;;;;;10.82;100.00;98072.08;110251;1242;69313;-66
2023/09/08 02:03:10;;;;;;;5.30;4.20;;;;;;;10.80;100.00;98071.66;110274;1241;59708;-67
2023/09/08 02:05:40;;;;;;;4.50;3.90;;;;;;;10.79;100.00;98069.98;110224;1242;59678;-64
2023/09/08 02:08:12;;;;;;;6.20;4.30;;;;;;;10.77;100.00;98068.22;110311;1241;71888;-65
2023/09/08 02:10:44;;;;;;;5.30;4.20;;;;;;;10.76;100.00;98073.85;110173;1243;67768;-65
2023/09/08 02:13:14;;;;;;;5.30;4.10;;;;;;;10.72;100.00;98076.17;110104;1241;68263;-65
2023/09/08 02:15:44;;;;;;;4.50;3.90;;;;;;;10.68;100.00;98076.73;110209;1242;60135;-65
2023/09/08 02:18:15;;;;;;;7.10;4.90;;;;;;;10.65;100.00;98075.21;110148;1245;59785;-65
2023/09/08 02:20:46;;;;;;;4.90;3.80;;;;;;;10.59;100.00;98077.84;110290;1243;71254;-65
2023/09/08 02:23:16;;;;;;;6.10;4.10;;;;;;;10.55;100.00;98076.20;110246;1243;69590;-64
2023/09/08 02:25:46;;;;;;;5.20;4.20;;;;;;;10.54;100.00;98072.06;110142;1245;69234;-67
2023/09/08 02:28:17;;;;;;;5.20;3.90;;;;;;;10.54;100.00;98076.77;110266;1241;59747;-65
2023/09/08 02:30:46;;;;;;;5.20;4.00;;;;;;;10.53;100.00;98077.19;110185;1246;60085;-65
2023/09/08 02:33:17;;;;;;;4.50;3.90;;;;;;;10.53;100.00;98078.59;110150;1241;70361;-65
2023/09/08 02:35:48;;;;;;;4.30;3.90;;;;;;;10.51;100.00;98078.34;110194;1245;69434;-65
2023/09/08 02:38:19;;;;;;;4.90;4.00;;;;;;;10.52;100.00;98087.52;110153;1251;69275;-65
2023/09/08 02:40:49;;;;;;;4.70;3.80;;;;;;;10.55;100.00;98086.14;110118;1245;59761;-65
2023/09/08 02:43:19;;;;;;;;;;;;;;;10.62;100.00;98081.16;110250;1242;59752;-65
2023/09/08 02:45:48;;;;;;;5.10;3.90;;;;;;;10.53;100.00;98083.14;110243;1240;72061;-65
2023/09/08 02:48:19;;;;;;;5.10;3.80;;;;;;;10.50;100.00;98082.42;110119;1246;69263;-65
2023/09/08 02:50:49;;;;;;;5.30;4.00;;;;;;;10.48;100.00;98078.90;110081;1244;69318;-65
2023/09/08 02:53:19;;;;;;;;;;;;;;;10.44;100.00;98075.48;110105;1244;59792;-65
2023/09/08 02:55:49;;;;;;;6.20;5.00;;;;;;;10.41;100.00;98073.41;110154;1241;59700;-65
2023/09/08 02:58:19;;;;;;;6.30;5.40;;;;;;;10.39;100.00;98075.06;110147;1244;71663;-65
2023/09/08 03:00:51;;;;;;;6.90;5.30;;;;;;;10.35;100.00;98076.23;110194;1243;68344;-65
2023/09/08 03:03:23;;;;;;;7.00;6.20;;;;;;;10.29;100.00;98078.15;110143;1245;69308;-65
2023/09/08 03:05:56;;;;;;;7.00;5.80;;;;;;;10.24;100.00;98083.66;110200;1245;59696;-66
2023/09/08 03:08:26;;;;;;;7.00;6.20;;;;;;;10.18;100.00;98086.61;110167;1241;59718;-66
2023/09/08 03:10:59;;;;;;;7.40;5.50;;;;;;;10.13;100.00;98088.12;110129;1244;70826;-65
2023/09/08 03:13:29;;;;;;;7.00;5.70;;;;;;;10.10;100.00;98085.37;110184;1245;69116;-66
2023/09/08 03:16:04;;;;;;;6.70;6.00;;;;;;;10.08;100.00;98082.15;110132;1244;70600;-65
2023/09/08 03:18:36;;;;;;;6.10;5.20;;;;;;;10.07;100.00;98082.23;110150;1241;59678;-67
2023/09/08 03:21:11;;;;;;;7.00;5.40;;;;;;;10.06;100.00;98083.31;110166;1244;59667;-66
2023/09/08 03:23:43;;;;;;;6.10;5.00;;;;;;;10.05;100.00;98086.70;110186;1241;72026;-66
2023/09/08 03:26:13;;;;;;;7.30;4.90;;;;;;;10.04;100.00;98089.20;110179;1242;69505;-66
2023/09/08 03:28:43;;;;;;;6.50;4.50;;;;;;;10.03;100.00;98086.46;110159;1245;69329;-65
2023/09/08 03:31:13;;;;;;;6.00;5.20;;;;;;;10.02;100.00;98089.52;110163;1242;59771;-65
2023/09/08 03:33:43;;;;;;;6.10;5.10;;;;;;;9.99;100.00;98088.96;110114;1245;59672;-65
2023/09/08 03:36:14;;;;;;;5.10;4.30;;;;;;;9.98;100.00;98090.60;110124;1241;71286;-65
2023/09/08 03:38:45;;;;;;;5.80;5.10;;;;;;;9.96;100.00;98092.64;110079;1245;69186;-65
2023/09/08 03:41:16;;;;;;;4.90;4.10;;;;;;;9.97;100.00;98090.69;110113;1244;68682;-65
2023/09/08 03:43:45;;;;;;;6.40;4.90;;;;;;;9.98;100.00;98090.41;110134;1244;59744;-65
2023/09/08 03:46:15;;;;;;;5.30;4.40;;;;;;;9.98;100.00;98086.75;110183;1241;59614;-65
2023/09/08 03:48:45;;;;;;;5.40;4.40;;;;;;;10.01;100.00;98087.31;110203;1240;71381;-65
2023/09/08 03:51:16;;;;;;;6.00;4.90;;;;;;;10.03;100.00;98087.70;110278;1242;69139;-65
2023/09/08 03:53:47;;;;;;;6.40;4.70;;;;;;;10.05;100.00;98086.02;110124;1245;70472;-65
2023/09/08 03:56:17;;;;;;;6.70;5.00;;;;;;;10.05;100.00;98086.69;110128;1244;59673;-65
2023/09/08 03:58:48;;;;;;;;;;;;;;;10.09;100.00;98090.27;110219;1240;59706;-65
2023/09/08 04:01:18;;;;;;;7.10;4.60;;;;;;;10.13;100.00;98088.30;110250;1240;71788;-65
2023/09/08 04:03:47;;;;;;;5.80;4.10;;;;;;;10.16;100.00;98090.05;110120;1246;68817;-65
2023/09/08 04:06:18;;;;;;;6.00;4.60;;;;;;;10.19;100.00;98091.44;110144;1244;69269;-65
2023/09/08 04:08:53;;;;;;;5.10;4.20;;;;;;;10.20;100.00;98096.75;110217;1242;59796;-65
2023/09/08 04:11:23;;;;;;;;;;;;;;;10.23;100.00;98100.42;110279;1249;59676;-66
2023/09/08 04:13:53;;;;;;;5.30;4.40;;;;;;;10.28;100.00;98098.24;110240;1241;71395;-66
2023/09/08 04:16:23;;;;;;;5.90;5.00;;;;;;;10.33;100.00;98095.50;110172;1244;69799;-65
2023/09/08 04:18:53;;;;;;;4.90;3.90;;;;;;;10.55;100.00;98092.89;110143;1244;69354;-66
2023/09/08 04:21:24;;;;;;;5.40;4.60;;;;;;;10.72;100.00;98094.98;110142;1246;59730;-66
2023/09/08 04:23:54;;;;;;;6.00;4.70;;;;;;;10.85;100.00;98091.57;110155;1245;59737;-66
2023/09/08 04:26:24;;;;;;;;;;;;;;;10.98;100.00;98091.11;110126;1244;71647;-66
2023/09/08 04:28:53;;;;;;;7.90;7.00;;;;;;;11.10;100.00;98090.17;110254;1243;69751;-66
2023/09/08 04:31:24;;;;;;;7.80;6.70;;;;;;;11.22;100.00;98095.14;110086;1244;69239;-65
2023/09/08 04:33:54;;;;;;;7.90;6.60;;;;;;;11.34;100.00;98097.17;110268;1242;59684;-65
2023/09/08 04:36:24;;;;;;;6.70;5.90;;;;;;;11.43;100.00;98096.03;110181;1241;59684;-65
2023/09/08 04:38:53;;;;;;;6.00;5.30;;;;;;;11.53;100.00;98098.87;110111;1245;70721;-65
2023/09/08 04:41:23;;;;;;;6.60;5.90;;;;;;;11.66;100.00;98099.05;110204;1242;69214;-65
2023/09/08 04:43:52;;;;;;;7.20;5.80;;;;;;;11.86;100.00;98100.41;110179;1242;69300;-65
2023/09/08 04:46:22;;;;;;;6.40;5.20;;;;;;;12.03;100.00;98097.14;110205;1242;59743;-64
2023/09/08 04:48:51;;;;;;;6.90;5.40;;;;;;;12.23;100.00;98097.85;110154;1242;59601;-65
2023/09/08 04:51:22;;;;;;;6.30;4.70;;;;;;;12.44;100.00;98093.25;109678;1242;729697;-65
2023/09/08 04:53:52;;;;;;;;;;;;;;;12.68;100.00;98096.50;110207;1242;69156;-65
2023/09/08 04:56:21;;;;;;;5.90;4.50;;;;;;;12.87;100.00;98092.31;110176;1242;68566;-65
2023/09/08 04:58:52;;;;;;;5.30;4.50;;;;;;;13.07;100.00;98093.86;110082;1241;59730;-66
2023/09/08 05:01:21;;;;;;;5.50;4.70;;;;;;;13.31;100.00;98096.36;110104;1245;59737;-67
2023/09/08 05:03:50;;;;;;;5.20;4.70;;;;;;;13.51;100.00;98105.77;110204;1242;71600;-63
2023/09/08 05:06:20;;;;;;;6.30;5.20;;;;;;;13.73;100.00;98109.02;110218;1245;70148;-65
2023/09/08 05:08:50;;;;;;;7.10;6.00;;;;;;;13.89;100.00;98111.20;110160;1241;68157;-65
2023/09/08 05:11:21;;;;;;;6.60;5.80;;;;;;;13.91;100.00;98111.05;110138;1244;59740;-64
2023/09/08 05:13:50;;;;;;;7.50;5.10;;;;;;;14.00;100.00;98111.92;110176;1242;59673;-64
2023/09/08 05:16:36;;;;;;;5.20;4.70;;;;;;;14.11;100.00;98113.70;110157;1240;71892;-64
2023/09/08 05:19:07;;;;;;;6.60;4.90;;;;;;;14.25;100.00;98115.59;110222;1242;68472;-66
2023/09/08 05:21:37;;;;;;;6.10;5.30;;;;;;;14.49;100.00;98114.67;110128;1245;69300;-65
2023/09/08 05:24:08;;;;;;;;;;;;;;;14.78;100.00;98110.14;110211;1240;59763;-64
2023/09/08 05:26:38;;;;;;;7.50;6.70;;;;;;;15.07;100.00;98104.85;110197;1241;59702;-65
2023/09/08 05:29:07;;;;;;;7.70;6.90;;;;;;;15.42;100.00;98107.27;110139;1244;70639;-64
2023/09/08 05:31:37;;;;;;;7.40;6.60;;;;;;;15.81;100.00;98105.31;110158;1242;69107;-64
2023/09/08 05:34:07;;;;;;;9.20;8.20;;;;;;;16.12;99.58;98104.16;110195;1241;69933;-66
2023/09/08 05:36:38;;;;;;;10.10;9.10;;;;;;;16.40;100.00;98106.64;110079;1244;59802;-63
2023/09/08 05:39:08;;;;;;;9.80;8.90;;;;;;;16.66;96.67;98103.89;110144;1244;59666;-64
2023/09/08 05:41:37;;;;;;;9.70;8.80;;;;;;;16.75;90.84;98104.19;110165;1242;70625;-64
2023/09/08 05:44:07;;;;;;;11.40;10.40;;;;;;;16.89;94.27;98109.45;110187;1242;69275;-65
2023/09/08 05:46:36;;;;;;;15.60;14.10;;;;;;;17.10;92.91;98109.03;110190;1250;69862;-64
2023/09/08 05:49:06;;;;;;;14.80;13.30;;;;;;;17.27;94.01;98106.50;110212;1242;59690;-64
2023/09/08 05:51:37;;;;;;;17.30;15.80;;;;;;;17.48;93.40;98105.66;110141;1245;59737;-65
2023/09/08 05:54:07;;;;;;;12.10;10.90;;;;;;;17.71;91.18;98107.32;110168;1241;72008;-66
2023/09/08 05:56:37;;;;;;;;;;;;;;;17.89;89.75;98109.34;110172;1244;69804;-65
2023/09/08 05:59:06;;;;;;;10.20;9.30;;;;;;;18.03;90.58;98108.46;110210;1245;68531;-66
2023/09/08 06:01:36;;;;;;;;;;;;;;;18.33;84.44;98106.73;110217;1242;59737;-64
2023/09/08 06:04:06;;;;;;;7.60;6.90;;;;;;;18.55;81.80;98100.16;110178;1245;60195;-65
2023/09/08 06:06:35;;;;;;;7.60;6.60;;;;;;;18.68;80.50;98099.83;110106;1244;71829;-64
2023/09/08 06:09:07;;;;;;;6.30;5.70;;;;;;;18.91;85.54;98102.80;110223;1242;69267;-65
2023/09/08 06:11:37;;;;;;;5.60;5.00;;;;;;;19.11;82.46;98102.79;110106;1244;68508;-65
2023/09/08 06:14:06;;;;;;;;;;;;;;;19.41;80.34;98102.94;110213;1242;59731;-64
2023/09/08 06:16:38;;;;;;;6.20;5.20;;;;;;;19.42;76.44;98104.02;110184;1242;59678;-64
2023/09/08 06:19:08;;;;;;;6.80;6.00;;;;;;;19.80;78.58;98104.75;110218;1241;71334;-64
2023/09/08 06:21:37;;;;;;;7.40;6.10;;;;;;;19.99;78.68;98101.63;110181;1243;67426;-65
2023/09/08 06:24:07;;;;;;;8.60;6.20;;;;;;;20.31;78.19;98101.33;110268;1242;68639;-64
2023/09/08 06:26:38;;;;;;;7.30;6.60;;;;;;;20.79;77.00;98101.17;110195;1245;59708;-65
2023/09/08 06:29:07;;;;;;;8.20;6.60;;;;;;;21.17;74.09;98100.92;110224;1241;59640;-64
2023/09/08 06:31:37;;;;;;;5.70;5.00;;;;;;;21.49;75.86;98100.23;110241;1243;71964;-65
2023/09/08 06:34:07;;;;;;;5.10;4.60;;;;;;;21.78;71.42;98102.77;110262;1241;69251;-63
2023/09/08 06:36:37;;;;;;;6.20;5.30;;;;;;;22.16;71.52;98099.58;110276;1241;69241;-65
2023/09/08 06:39:06;;;;;;;5.70;5.20;;;;;;;22.44;69.51;98100.57;110212;1241;59757;-64
2023/09/08 06:41:35;;;;;;;6.10;4.80;;;;;;;22.50;67.24;98098.03;110146;1244;59651;-64
2023/09/08 06:44:05;;;;;;;6.10;5.30;;;;;;;22.52;67.31;98098.29;110246;1242;70706;-63
2023/09/08 06:46:35;;;;;;;7.00;6.00;;;;;;;22.54;67.71;98097.02;110196;1242;69802;-64
2023/09/08 06:49:04;;;;;;;6.10;5.30;;;;;;;22.49;66.30;98097.16;110202;1241;68414;-66
2023/09/08 06:51:34;;;;;;;5.40;4.80;;;;;;;22.71;66.07;98098.44;110200;1245;60137;-64
2023/09/08 06:54:03;;;;;;;4.90;4.50;;;;;;;22.98;65.50;98094.89;110212;1242;59691;-64
2023/09/08 06:56:42;;;;;;;5.10;4.60;;;;;;;23.34;66.05;98090.48;110226;1249;71870;-64
2023/09/08 06:59:12;;;;;;;5.90;4.40;;;;;;;23.63;63.70;98093.52;110101;1244;69378;-64
2023/09/08 07:01:43;;;;;;;5.80;4.20;;;;;;;23.78;62.27;98090.94;110227;1241;69226;-63
2023/09/08 07:04:13;;;;;;;5.10;4.30;;;;;;;23.73;60.85;98090.73;110193;1242;59750;-64
2023/09/08 07:06:44;;;;;;;5.80;4.30;;;;;;;24.05;60.50;98092.89;110263;1242;59688;-64
2023/09/08 07:09:13;;;;;;;5.30;4.70;;;;;;;24.29;58.45;98087.33;110212;1245;72178;-64
2023/09/08 07:11:43;;;;;;;5.60;4.40;;;;;;;24.47;58.46;98088.13;110105;1244;69806;-65
2023/09/08 07:14:12;;;;;;;9.30;4.80;;;;;;;24.68;57.13;98085.02;110259;1242;69185;-66
2023/09/08 07:16:42;;;;;;;4.80;4.20;;;;;;;25.05;58.88;98086.92;110256;1241;59714;-64
2023/09/08 07:19:12;;;;;;;5.60;3.70;;;;;;;25.39;56.17;98081.15;110261;1242;59698;-65
2023/09/08 07:21:41;;;;;;;5.20;4.00;;;;;;;25.79;56.69;98086.06;110168;1244;71629;-64
2023/09/08 07:24:10;;;;;;;;;;;;;;;26.02;52.80;98084.09;110119;1240;68464;-65
2023/09/08 07:26:39;;;;;;;;;;;;;;;26.29;55.12;98085.46;110267;1242;68142;-65
2023/09/08 07:29:08;;;;;;;5.50;4.20;;;;;;;26.28;50.63;98085.05;110219;1240;59672;-65
2023/09/08 07:31:38;;;;;;;;;;;;;;;26.25;51.42;98083.33;110166;1241;59715;-65
2023/09/08 07:34:08;;;;;;;5.00;4.00;;;;;;;26.36;50.55;98085.23;110085;1244;71055;-63
2023/09/08 07:36:37;;;;;;;4.40;3.50;;;;;;;26.49;51.43;98083.52;110178;1242;68785;-65
2023/09/08 07:39:08;;;;;;;5.50;3.80;;;;;;;26.74;50.69;98082.63;110152;1243;69083;-64
2023/09/08 07:41:39;;;;;;;4.50;3.50;;;;;;;26.91;50.25;98078.98;110114;1241;59743;-65
2023/09/08 07:44:08;;;;;;;5.00;3.90;;;;;;;27.20;47.95;98078.79;110120;1244;59689;-64
2023/09/08 07:46:37;;;;;;;;;;;;;;;27.18;47.61;98077.90;110196;1242;71581;-64
2023/09/08 07:49:06;;;;;;;;;;;;;;;27.28;46.42;98076.67;110236;1242;69341;-64
2023/09/08 07:51:36;;;;;;;4.50;3.70;;;;;;;27.31;47.38;98077.70;110168;1242;69897;-63
2023/09/08 07:54:06;;;;;;;4.60;3.70;;;;;;;27.71;48.51;98077.67;110177;1242;59702;-64
2023/09/08 07:56:35;;;;;;;4.70;3.80;;;;;;;27.96;45.91;98074.66;110199;1242;59688;-64
2023/09/08 07:59:05;;;;;;;5.40;4.60;;;;;;;27.97;43.57;98072.96;110219;1241;70953;-63
2023/09/08 08:01:35;;;;;;;4.40;4.00;;;;;;;27.95;42.20;98069.73;110190;1240;68792;-63
2023/09/08 08:04:04;;;;;;;4.60;4.10;;;;;;;28.13;42.25;98070.15;110182;1241;69267;-65
2023/09/08 08:06:33;;;;;;;4.30;3.20;;;;;;;28.46;44.22;98069.77;110183;1242;59704;-63
2023/09/08 08:09:02;;;;;;;3.80;3.40;;;;;;;28.93;45.31;98066.92;110245;1242;59676;-62
2023/09/08 08:11:32;;;;;;;4.50;3.40;;;;;;;29.32;42.41;98062.41;110221;1242;72028;-65
2023/09/08 08:14:01;;;;;;;3.80;3.20;;;;;;;29.09;40.66;98063.23;110235;1242;69276;-64
2023/09/08 08:16:30;;;;;;;3.90;3.10;;;;;;;29.55;42.03;98065.89;110202;1242;69662;-66
2023/09/08 08:18:59;;;;;;;3.40;2.90;;;;;;;29.58;39.07;98065.14;110241;1242;59742;-64
2023/09/08 08:21:29;;;;;;;6.00;3.50;;;;;;;29.92;40.47;98068.91;110234;1242;59671;-61
2023/09/08 08:23:59;;;;;;;3.50;3.00;;;;;;;30.15;38.77;98066.88;110224;1241;71418;-64
2023/09/08 08:26:32;;;;;;;3.40;3.00;;;;;;;30.54;38.92;98068.38;110276;1242;68568;-66
2023/09/08 08:29:03;;;;;;;4.00;3.40;;;;;;;30.45;38.06;98065.95;110306;1241;69261;-64
2023/09/08 08:31:33;;;;;;;4.70;3.50;;;;;;;30.72;37.41;98066.81;110351;1242;59744;-65
2023/09/08 08:34:02;;;;;;;3.60;3.30;;;;;;;30.32;36.80;98062.17;110268;1242;59657;-63
2023/09/08 08:36:31;;;;;;;3.70;2.70;;;;;;;30.44;36.88;98060.02;110279;1240;71986;-62
2023/09/08 08:39:01;;;;;;;4.00;3.20;;;;;;;30.68;37.47;98060.06;110283;1241;69880;-64
2023/09/08 08:41:30;;;;;;;3.10;2.80;;;;;;;30.83;37.43;98062.84;110224;1243;69946;-63
2023/09/08 08:44:00;;;;;;;3.10;2.40;;;;;;;31.25;37.26;98059.98;110241;1242;60191;-63
2023/09/08 08:46:30;;;;;;;2.80;2.50;;;;;;;31.56;35.34;98058.27;110297;1242;59702;-62
2023/09/08 08:49:03;;;;;;;3.70;2.50;;;;;;;31.28;32.96;98058.48;110242;1241;71330;-62
2023/09/08 08:51:32;;;;;;;4.90;3.30;;;;;;;31.77;35.43;98062.63;110293;1242;69868;-65
2023/09/08 08:54:04;;;;;;;4.30;2.90;;;;;;;31.88;34.79;98060.05;110278;1243;69853;-64
2023/09/08 08:56:36;;;;;;;2.90;2.40;;;;;;;32.16;32.33;98060.94;110226;1241;59700;-64
2023/09/08 08:59:06;;;;;;;3.30;2.90;;;;;;;31.87;32.26;98060.80;110224;1243;59741;-65
2023/09/08 09:01:35;;;;;;;5.00;2.80;;;;;;;31.97;32.87;98061.18;110231;1241;71988;-64
2023/09/08 09:04:06;;;;;;;3.10;2.70;;;;;;;32.40;31.66;98060.36;110288;1242;69059;-65
2023/09/08 09:06:36;;;;;;;3.70;3.00;;;;;;;32.64;32.05;98059.13;110219;1240;69723;-62
2023/09/08 09:09:05;;;;;;;5.70;5.10;;;;;;;32.22;30.94;98057.77;110224;1241;59732;-65
2023/09/08 09:11:35;;;;;;;4.00;2.80;;;;;;;31.07;32.10;98058.55;110135;1240;59742;-65
2023/09/08 09:14:04;;;;;;;3.30;2.80;;;;;;;30.65;32.88;98055.73;110222;1242;70344;-63
2023/09/08 09:16:40;;;;;;;4.10;2.90;;;;;;;30.97;33.03;98057.34;110269;1241;68830;-66
2023/09/08 09:19:09;;;;;;;3.00;2.70;;;;;;;31.57;32.54;98051.02;110289;1243;69190;-64
2023/09/08 09:21:47;;;;;;;3.30;2.80;;;;;;;30.52;33.25;98055.50;110221;1243;59689;-66
2023/09/08 09:24:18;;;;;;;;;;;;;;;30.82;33.38;98051.61;110148;1240;59667;-65
2023/09/08 09:26:53;;;;;;;4.80;2.50;;;;;;;30.88;33.40;98050.42;110274;1243;71409;-66
2023/09/08 09:29:22;;;;;;;3.50;2.90;;;;;;;30.74;33.87;98051.13;110270;1242;69813;-65
2023/09/08 09:31:56;;;;;;;2.90;2.40;;;;;;;30.78;33.92;98046.38;110226;1242;68500;-65
2023/09/08 09:34:25;;;;;;;3.20;2.40;;;;;;;31.84;33.16;98040.40;110225;1240;59663;-66
2023/09/08 09:36:54;;;;;;;3.40;2.50;;;;;;;32.62;32.37;98039.71;110326;1242;59643;-65
2023/09/08 09:39:24;;;;;;;3.00;2.70;;;;;;;33.26;30.75;98038.42;110280;1241;71776;-63
2023/09/08 09:41:56;;;;;;;3.10;2.50;;;;;;;33.77;30.19;98036.33;110260;1242;69822;-66
2023/09/08 09:44:26;;;;;;;2.90;2.50;;;;;;;33.34;29.98;98035.51;110240;1242;69264;-65
2023/09/08 09:46:55;;;;;;;3.40;2.60;;;;;;;33.80;29.36;98036.96;110244;1242;59713;-65
2023/09/08 09:49:26;;;;;;;3.40;3.00;;;;;;;34.79;29.41;98038.58;110235;1242;59663;-66
2023/09/08 09:51:57;;;;;;;3.00;2.70;;;;;;;35.05;28.18;98037.74;110236;1243;71452;-65
2023/09/08 09:54:29;;;;;;;3.20;2.50;;;;;;;34.92;27.56;98034.90;110256;1242;70082;-65
2023/09/08 09:56:59;;;;;;;3.10;2.70;;;;;;;35.11;27.42;98028.85;110183;1241;69365;-65
2023/09/08 09:59:29;;;;;;;4.10;3.10;;;;;;;35.14;27.41;98028.00;110198;1242;59763;-65
2023/09/08 10:01:59;;;;;;;4.70;3.40;;;;;;;34.74;27.68;98028.59;110232;1242;59622;-65
2023/09/08 10:04:30;;;;;;;4.20;2.80;;;;;;;34.62;27.19;98029.35;110258;1242;70503;-65
2023/09/08 10:06:59;;;;;;;3.30;2.60;;;;;;;34.79;27.26;98026.85;110195;1241;68679;-65
2023/09/08 10:09:28;;;;;;;3.60;3.10;;;;;;;34.68;27.71;98021.82;110279;1241;68703;-66
2023/09/08 10:12:03;;;;;;;3.60;3.10;;;;;;;34.81;27.44;98023.45;110298;1241;59768;-66
2023/09/08 10:14:36;;;;;;;4.80;3.20;;;;;;;34.87;27.76;98013.21;110319;1242;59664;-62
2023/09/08 10:17:08;;;;;;;3.40;2.60;;;;;;;35.26;27.52;98009.22;110315;1242;72364;-65
2023/09/08 10:19:41;;;;;;;5.00;3.70;;;;;;;35.33;27.31;98005.17;110317;1242;69799;-66
2023/09/08 10:22:19;;;;;;;4.10;3.30;;;;;;;35.51;26.36;97998.89;110280;1242;69127;-65
2023/09/08 10:24:50;;;;;;;3.50;2.80;;;;;;;34.84;26.89;97999.02;110289;1242;59742;-65
2023/09/08 10:27:22;;;;;;;3.20;2.60;;;;;;;34.61;27.28;98000.48;110276;1242;59689;-66
2023/09/08 10:29:52;;;;;;;3.20;2.60;;;;;;;34.82;27.43;97996.59;110267;1241;72005;-66
2023/09/08 10:32:23;;;;;;;4.20;3.20;;;;;;;35.10;26.96;97989.00;110288;1242;69665;-65
2023/09/08 10:34:54;;;;;;;3.80;2.80;;;;;;;35.01;27.47;97986.13;110279;1242;69401;-65
2023/09/08 10:37:29;;;;;;;3.70;2.50;;;;;;;35.26;27.25;97988.95;110247;1241;59745;-67
2023/09/08 10:40:30;;;;;;;4.60;2.60;;;;;;;35.26;26.53;97986.67;110275;1242;59688;-64
2023/09/08 10:43:09;;;;;;;4.30;2.70;;;;;;;35.66;27.19;97989.34;110221;1241;71407;-65
2023/09/08 10:45:41;;;;;;;3.40;3.10;;;;;;;35.78;26.97;97989.71;110290;1241;69199;-65
2023/09/08 10:48:14;;;;;;;4.40;2.70;;;;;;;35.72;26.01;97989.94;110133;1242;69336;-66
2023/09/08 10:50:43;;;;;;;3.10;2.60;;;;;;;35.62;26.24;97983.66;110211;1242;59702;-65
2023/09/08 10:53:19;;;;;;;3.40;2.30;;;;;;;35.51;26.66;97980.29;110226;1241;59687;-66
2023/09/08 10:55:53;;;;;;;4.60;3.00;;;;;;;35.65;26.99;97979.27;110217;1241;72207;-66
2023/09/08 10:58:39;;;;;;;2.80;2.40;;;;;;;35.98;25.64;97980.08;110218;1244;69685;-66
2023/09/08 11:01:16;;;;;;;3.10;2.60;;;;;;;36.04;25.79;97979.26;110206;1243;69198;-65
2023/09/08 11:03:49;;;;;;;4.00;2.70;;;;;;;36.13;25.94;97978.98;110174;1241;59701;-65
2023/09/08 11:06:30;;;;;;;3.00;2.40;;;;;;;36.12;25.51;97974.67;110137;1241;59721;-65
2023/09/08 11:09:07;;;;;;;2.70;2.10;;;;;;;35.69;24.95;97976.72;110194;1243;70681;-67
2023/09/08 11:11:36;;;;;;;2.90;2.40;;;;;;;35.53;26.28;97978.60;110159;1244;69854;-66
2023/09/08 11:14:07;;;;;;;2.70;2.10;;;;;;;35.55;26.25;97973.44;110167;1241;68738;-65
2023/09/08 11:16:37;;;;;;;3.90;2.60;;;;;;;35.63;26.07;97974.55;110240;1241;59709;-66
2023/09/08 11:19:06;;;;;;;2.70;2.00;;;;;;;35.87;25.30;97968.41;110157;1241;59653;-65
2023/09/08 11:21:36;;;;;;;2.80;2.20;;;;;;;36.28;25.91;97974.52;110145;1243;71948;-65
2023/09/08 11:24:10;;;;;;;3.40;2.10;;;;;;;36.90;24.63;97972.52;110174;1244;69688;-65
2023/09/08 11:26:39;;;;;;;3.00;1.90;;;;;;;37.44;24.42;97969.71;110143;1244;69289;-65
2023/09/08 11:29:09;;;;;;;2.20;1.70;;;;;;;37.71;23.72;97969.95;110176;1243;59688;-65
2023/09/08 11:31:39;;;;;;;2.10;1.70;;;;;;;37.49;23.12;97963.33;110144;1241;59755;-65
2023/09/08 11:34:13;;;;;;;2.70;1.70;;;;;;;37.85;23.08;97961.81;110135;1244;72391;-66
2023/09/08 11:36:43;;;;;;;2.80;1.80;;;;;;;38.28;23.08;97961.48;110143;1245;69248;-66
2023/09/08 11:39:12;;;;;;;3.00;1.80;;;;;;;37.88;22.16;97956.02;110204;1248;69902;-65
2023/09/08 11:41:41;;;;;;;3.40;2.00;;;;;;;37.38;22.88;97952.51;110157;1244;59756;-66
2023/09/08 11:44:17;;;;;;;3.30;2.40;;;;;;;37.35;23.17;97954.27;110186;1243;59678;-64